createdAt,value
2018-07-08T17:06:37.063Z,27.20
2018-07-08T17:11:40.356Z,27.00
2018-07-08T17:16:43.667Z,27.00
2018-07-08T17:21:46.969Z,26.80
2018-07-08T17:26:50.260Z,26.80
2018-07-08T17:31:54.430Z,26.70
2018-07-08T17:36:57.694Z,26.40
2018-07-08T17:42:01.418Z,26.30
2018-07-08T17:47:05.236Z,26.20
2018-07-08T17:52:08.546Z,23.60
2018-07-08T17:57:11.897Z,26.20
2018-07-08T18:02:15.356Z,26.20
2018-07-08T18:07:18.759Z,26.10
2018-07-08T18:12:22.185Z,25.90
2018-07-08T18:17:25.466Z,25.50
2018-07-08T18:22:29.749Z,25.20
2018-07-08T18:27:33.162Z,25.00
2018-07-08T18:32:36.779Z,24.80
2018-07-08T18:37:40.102Z,24.50
2018-07-08T18:42:43.507Z,24.30
2018-07-08T18:47:46.812Z,24.20
2018-07-08T18:52:50.084Z,24.10
2018-07-08T18:57:53.542Z,23.90
2018-07-08T19:02:57.047Z,23.70
2018-07-08T19:08:00.335Z,23.50
2018-07-08T19:13:03.692Z,23.30
2018-07-08T19:18:06.972Z,23.10
2018-07-08T19:23:10.306Z,22.90
2018-07-08T19:28:13.608Z,22.70
2018-07-08T19:33:17.516Z,22.40
2018-07-08T19:38:20.875Z,22.40
2018-07-08T19:43:24.144Z,22.30
2018-07-08T19:48:27.457Z,22.10
2018-07-08T19:53:30.746Z,22.00
2018-07-08T19:58:34.013Z,21.90
2018-07-08T20:03:37.321Z,21.80
2018-07-08T20:08:40.907Z,21.70
2018-07-08T20:13:44.893Z,21.60
2018-07-08T20:18:49.726Z,21.40
2018-07-08T20:23:53.650Z,21.20
2018-07-08T20:28:58.125Z,21.00
2018-07-08T20:34:03.798Z,20.90
2018-07-08T20:39:08.546Z,20.80
2018-07-08T20:44:13.454Z,20.70
2018-07-08T20:49:17.066Z,20.60
2018-07-08T20:54:20.646Z,20.60
2018-07-08T20:59:23.931Z,20.60
2018-07-08T21:04:27.256Z,20.50
2018-07-08T21:09:30.557Z,20.30
2018-07-08T21:14:33.839Z,20.20
2018-07-08T21:19:37.393Z,20.10
2018-07-08T21:24:40.769Z,19.90
2018-07-08T21:29:44.157Z,19.80
2018-07-08T21:34:47.491Z,19.80
2018-07-08T21:39:50.779Z,19.80
2018-07-08T21:44:54.777Z,19.80
2018-07-08T21:49:58.080Z,19.50
2018-07-08T21:55:01.414Z,19.40
2018-07-08T22:00:05.496Z,19.20
2018-07-08T22:05:08.810Z,19.10
2018-07-08T22:10:12.115Z,19.00
2018-07-08T22:15:15.376Z,18.90
2018-07-08T22:20:18.657Z,19.00
2018-07-08T22:25:21.994Z,19.00
2018-07-08T22:30:25.287Z,19.00
2018-07-08T22:35:28.591Z,18.90
2018-07-08T22:40:31.896Z,19.00
2018-07-08T22:45:35.202Z,18.90
2018-07-08T22:50:38.530Z,18.70
2018-07-08T22:55:41.819Z,18.40
2018-07-08T23:00:56.368Z,18.20
2018-07-08T23:05:59.683Z,18.10
2018-07-08T23:11:02.954Z,18.00
2018-07-08T23:16:06.261Z,18.00
2018-07-08T23:21:09.560Z,17.80
2018-07-08T23:26:12.869Z,17.70
2018-07-08T23:31:16.143Z,17.80
2018-07-08T23:36:19.449Z,17.70
2018-07-08T23:41:22.715Z,17.70
2018-07-08T23:46:26.027Z,17.60
2018-07-08T23:51:29.335Z,17.70
2018-07-08T23:56:32.606Z,17.60
